createdAt,value
2022-08-28T00:02:26.252Z,99839.75
2022-08-28T00:04:53.407Z,99841.81
2022-08-28T00:07:19.793Z,99844.31
2022-08-28T00:09:46.234Z,99842.73
2022-08-28T00:12:12.542Z,99843.70
2022-08-28T00:14:38.918Z,99841.48
2022-08-28T00:17:05.365Z,99837.70
2022-08-28T00:19:34.459Z,99834.98
2022-08-28T00:22:04.553Z,99831.27
2022-08-28T00:24:30.883Z,99832.38
2022-08-28T00:27:16.133Z,99831.71
2022-08-28T00:29:45.519Z,99829.82
2022-08-28T00:32:13.078Z,99829.17
2022-08-28T00:34:39.398Z,99826.15
2022-08-28T00:37:05.761Z,99826.98
2022-08-28T00:39:32.316Z,99826.98
2022-08-28T00:41:59.667Z,99822.24
2022-08-28T00:44:27.111Z,99820.91
2022-08-28T00:46:55.681Z,99819.35
2022-08-28T00:49:27.169Z,99823.19
2022-08-28T00:52:12.266Z,99818.23
2022-08-28T00:54:50.485Z,99817.53
2022-08-28T00:57:32.028Z,99815.37
2022-08-28T00:59:58.449Z,99817.34
2022-08-28T01:02:26.853Z,99814.25
2022-08-28T01:04:54.074Z,99811.56
2022-08-28T01:07:22.637Z,99813.60
2022-08-28T01:09:52.224Z,99807.14
2022-08-28T01:12:24.926Z,99809.20
2022-08-28T01:14:52.940Z,99811.41
2022-08-28T01:17:20.895Z,99810.57
2022-08-28T01:19:55.853Z,99812.27
2022-08-28T01:22:36.701Z,99815.23
2022-08-28T01:25:18.773Z,99815.62
2022-08-28T01:27:46.351Z,99807.86
2022-08-28T01:30:16.192Z,99809.95
2022-08-28T01:32:49.409Z,99809.15
2022-08-28T01:35:19.360Z,99806.06
2022-08-28T01:37:46.515Z,99812.66
2022-08-28T01:40:19.609Z,99814.19
2022-08-28T01:42:46.003Z,99814.89
2022-08-28T01:45:15.328Z,99811.45
2022-08-28T01:47:43.297Z,99811.88
2022-08-28T01:50:12.071Z,99815.42
2022-08-28T01:52:39.185Z,99816.05
2022-08-28T01:55:07.617Z,99814.14
2022-08-28T01:57:34.640Z,99815.03
2022-08-28T02:00:01.180Z,99816.09
2022-08-28T02:02:28.200Z,99813.35
2022-08-28T02:04:55.090Z,99813.81
2022-08-28T02:07:21.372Z,99813.20
2022-08-28T02:09:47.660Z,99815.50
2022-08-28T02:12:14.106Z,99817.70
2022-08-28T02:14:41.151Z,99819.11
2022-08-28T02:17:08.300Z,99820.83
2022-08-28T02:19:34.797Z,99820.77
2022-08-28T02:22:03.245Z,99820.91
2022-08-28T02:24:29.533Z,99820.65
2022-08-28T02:26:55.928Z,99821.27
2022-08-28T02:29:22.887Z,99820.27
2022-08-28T02:31:50.348Z,99820.20
2022-08-28T02:34:16.643Z,99816.65
2022-08-28T02:36:43.181Z,99811.66
2022-08-28T02:39:10.259Z,99812.34
2022-08-28T02:41:37.257Z,99815.34
2022-08-28T02:44:03.767Z,99811.25
2022-08-28T02:46:30.151Z,99809.30
2022-08-28T02:48:56.514Z,99809.56
2022-08-28T02:51:23.145Z,99808.44
2022-08-28T02:53:49.836Z,99809.49
2022-08-28T02:56:16.393Z,99808.17
2022-08-28T02:58:42.835Z,99807.49
2022-08-28T03:01:11.490Z,99813.36
2022-08-28T03:03:38.934Z,99813.84
2022-08-28T03:06:08.549Z,99812.02
2022-08-28T03:08:34.962Z,99809.45
2022-08-28T03:11:01.375Z,99812.14
2022-08-28T03:13:29.512Z,99811.73
2022-08-28T03:15:56.526Z,99808.21
2022-08-28T03:18:26.131Z,99808.54
2022-08-28T03:20:53.337Z,99811.76
2022-08-28T03:23:25.714Z,99811.05
2022-08-28T03:26:08.395Z,99807.92
2022-08-28T03:28:41.272Z,99807.46
2022-08-28T03:31:11.853Z,99806.73
2022-08-28T03:33:38.335Z,99809.80
2022-08-28T03:36:10.864Z,99812.43
2022-08-28T03:38:37.492Z,99808.51
2022-08-28T03:41:09.957Z,99809.38
2022-08-28T03:43:36.371Z,99816.84
2022-08-28T03:46:05.443Z,99821.38
2022-08-28T03:48:35.254Z,99828.24
2022-08-28T03:51:06.337Z,99833.87
2022-08-28T03:53:33.284Z,99836.98
2022-08-28T03:56:00.160Z,99833.41
2022-08-28T03:58:27.336Z,99826.58
2022-08-28T04:00:53.937Z,99828.35
2022-08-28T04:03:20.969Z,99825.50
2022-08-28T04:05:47.599Z,99824.23
2022-08-28T04:08:16.285Z,99825.33
2022-08-28T04:10:44.385Z,99827.85
2022-08-28T04:13:11.373Z,99830.68
2022-08-28T04:15:37.899Z,99833.83
2022-08-28T04:18:04.693Z,99836.80
2022-08-28T04:20:31.107Z,99834.52
2022-08-28T04:22:57.477Z,99832.81
2022-08-28T04:25:26.988Z,99834.17
2022-08-28T04:27:53.883Z,99831.77
2022-08-28T04:30:20.420Z,99826.41
2022-08-28T04:32:47.175Z,99829.35
2022-08-28T04:35:14.198Z,99831.83
2022-08-28T04:37:40.880Z,99833.40
2022-08-28T04:40:10.093Z,99833.73
2022-08-28T04:42:39.638Z,99831.91
2022-08-28T04:45:06.643Z,99831.36
2022-08-28T04:47:37.336Z,99833.35
2022-08-28T04:50:06.194Z,99835.67
2022-08-28T04:52:32.877Z,99837.71
2022-08-28T04:54:59.608Z,99842.55
2022-08-28T04:57:27.205Z,99844.19
2022-08-28T04:59:53.651Z,99845.90
2022-08-28T05:02:20.177Z,99844.01
2022-08-28T05:04:47.283Z,99846.07
2022-08-28T05:07:13.807Z,99849.86
2022-08-28T05:09:40.097Z,99851.66
2022-08-28T05:12:06.626Z,99845.56
2022-08-28T05:14:33.300Z,99838.13
2022-08-28T05:16:59.672Z,99842.75
2022-08-28T05:19:27.168Z,99840.14
2022-08-28T05:21:54.200Z,99844.68
2022-08-28T05:24:21.725Z,99846.00
2022-08-28T05:26:48.752Z,99847.95
2022-08-28T05:29:16.713Z,99851.28
2022-08-28T05:31:44.070Z,99845.20
2022-08-28T05:34:11.997Z,99844.61
2022-08-28T05:36:39.289Z,99847.03
2022-08-28T05:39:08.859Z,99851.60
2022-08-28T05:41:36.706Z,99852.87
2022-08-28T05:44:06.013Z,99854.34
2022-08-28T05:46:32.708Z,99852.47
2022-08-28T05:48:59.694Z,99853.77
2022-08-28T05:51:26.378Z,99854.81
2022-08-28T05:53:53.816Z,99854.12
2022-08-28T05:56:28.927Z,99851.08
2022-08-28T05:58:59.768Z,99849.05
2022-08-28T06:01:31.883Z,99851.47
2022-08-28T06:04:04.555Z,99850.36
2022-08-28T06:06:33.882Z,99850.77
2022-08-28T06:09:04.721Z,99855.22
2022-08-28T06:11:32.073Z,99854.67
2022-08-28T06:14:02.739Z,99857.34
2022-08-28T06:16:32.119Z,99856.82
2022-08-28T06:18:59.682Z,99855.83
2022-08-28T06:21:26.103Z,99852.14
2022-08-28T06:23:52.581Z,99851.77
2022-08-28T06:26:19.075Z,99847.46
2022-08-28T06:28:45.765Z,99848.80
2022-08-28T06:31:23.646Z,99853.47
2022-08-28T06:33:56.529Z,99851.49
2022-08-28T06:36:26.620Z,99852.59
2022-08-28T06:38:57.426Z,99848.16
2022-08-28T06:41:24.620Z,99854.04
2022-08-28T06:43:51.044Z,99853.40
2022-08-28T06:46:17.483Z,99853.92
2022-08-28T06:48:44.071Z,99851.09
2022-08-28T06:51:11.770Z,99851.34
2022-08-28T06:53:40.276Z,99848.92
2022-08-28T06:56:10.527Z,99845.98
2022-08-28T06:58:42.444Z,99843.27
2022-08-28T07:01:26.239Z,99843.50
2022-08-28T07:03:55.280Z,99844.19
2022-08-28T07:06:22.702Z,99843.13
2022-08-28T07:08:49.291Z,99841.95
2022-08-28T07:11:26.056Z,99846.68
2022-08-28T07:13:54.019Z,99847.95
2022-08-28T07:16:23.219Z,99851.31
2022-08-28T07:18:50.036Z,99850.59
2022-08-28T07:21:18.095Z,99851.27
2022-08-28T07:23:45.397Z,99847.98
2022-08-28T07:26:15.862Z,99849.98
2022-08-28T07:28:42.860Z,99847.98
2022-08-28T07:31:14.882Z,99854.92
2022-08-28T07:33:42.895Z,99853.05
2022-08-28T07:36:15.936Z,99861.86
2022-08-28T07:38:57.433Z,99864.16
2022-08-28T07:41:29.481Z,99865.84
2022-08-28T07:44:15.357Z,99874.18
2022-08-28T07:46:42.041Z,99870.38
2022-08-28T07:49:09.027Z,99866.34
2022-08-28T07:51:35.889Z,99862.82
2022-08-28T07:54:03.250Z,99860.84
2022-08-28T07:56:30.056Z,99859.42
2022-08-28T07:58:57.597Z,99859.77
2022-08-28T08:01:25.912Z,99855.65
2022-08-28T08:03:52.394Z,99854.82
2022-08-28T08:06:28.068Z,99861.96
2022-08-28T08:09:02.140Z,99862.38
2022-08-28T08:11:32.212Z,99864.94
2022-08-28T08:14:04.762Z,99866.38
2022-08-28T08:16:34.418Z,99865.16
2022-08-28T08:19:02.852Z,99861.48
2022-08-28T08:21:30.574Z,99862.70
2022-08-28T08:23:58.288Z,99863.21
2022-08-28T08:26:27.333Z,99869.12
2022-08-28T08:28:54.076Z,99870.02
2022-08-28T08:31:24.007Z,99874.27
2022-08-28T08:33:54.741Z,99878.10
2022-08-28T08:36:22.932Z,99875.52
2022-08-28T08:38:50.258Z,99873.92
2022-08-28T08:41:39.437Z,99871.36
2022-08-28T08:44:18.111Z,99874.39
2022-08-28T08:46:50.268Z,99875.15
2022-08-28T08:49:20.378Z,99874.50
2022-08-28T08:52:14.808Z,99878.23
2022-08-28T08:55:07.757Z,99877.57
2022-08-28T08:57:35.694Z,99882.94
2022-08-28T09:00:06.700Z,99882.52
2022-08-28T09:02:38.318Z,99878.62
2022-08-28T09:05:08.365Z,99883.48
2022-08-28T09:07:39.058Z,99881.86
2022-08-28T09:10:10.515Z,99883.67
2022-08-28T09:13:00.330Z,99885.39
2022-08-28T09:15:32.728Z,99881.14
2022-08-28T09:18:11.759Z,99880.40
2022-08-28T09:20:38.208Z,99883.00
2022-08-28T09:23:12.433Z,99879.79
2022-08-28T09:25:55.019Z,99881.86
2022-08-28T09:28:27.137Z,99879.10
2022-08-28T09:31:14.921Z,99873.69
2022-08-28T09:33:44.587Z,99878.65
2022-08-28T09:36:33.357Z,99875.79
2022-08-28T09:39:48.142Z,99868.45
2022-08-28T09:42:40.915Z,99867.41
2022-08-28T09:45:20.593Z,99866.14
2022-08-28T09:47:50.130Z,99866.25
2022-08-28T09:50:16.406Z,99863.60
2022-08-28T09:52:42.716Z,99860.41
2022-08-28T09:55:14.161Z,99857.72
2022-08-28T09:57:42.205Z,99859.87
2022-08-28T10:00:09.346Z,99858.64
2022-08-28T10:03:03.290Z,99860.45
2022-08-28T10:05:45.317Z,99855.27
2022-08-28T10:08:29.778Z,99849.34
2022-08-28T10:11:01.456Z,99846.23
2022-08-28T10:13:36.181Z,99849.50
2022-08-28T10:16:13.325Z,99847.00
2022-08-28T10:18:46.057Z,99850.65
2022-08-28T10:21:14.807Z,99846.27
2022-08-28T10:24:13.782Z,99841.80
2022-08-28T10:26:49.125Z,99840.39
2022-08-28T10:29:26.931Z,99842.63
2022-08-28T10:32:29.006Z,99836.95
2022-08-28T10:35:02.281Z,99837.98
2022-08-28T10:37:41.832Z,99832.61
2022-08-28T10:40:14.960Z,99832.30
2022-08-28T10:42:44.925Z,99832.43
2022-08-28T10:45:11.485Z,99830.06
2022-08-28T10:47:41.295Z,99826.69
2022-08-28T10:50:14.343Z,99828.14
2022-08-28T10:52:47.501Z,99832.80
2022-08-28T10:55:39.310Z,99826.55
2022-08-28T10:58:24.302Z,99829.39
2022-08-28T11:00:55.339Z,99830.84
2022-08-28T11:03:34.274Z,99830.55
2022-08-28T11:06:05.793Z,99826.98
2022-08-28T11:08:35.147Z,99827.55
2022-08-28T11:11:03.935Z,99827.04
2022-08-28T11:13:54.981Z,99831.13
2022-08-28T11:16:24.309Z,99836.02
2022-08-28T11:19:09.202Z,99831.31
2022-08-28T11:21:54.523Z,99828.36
2022-08-28T11:24:30.768Z,99824.69
2022-08-28T11:27:03.259Z,99819.95
2022-08-28T11:29:57.741Z,99820.45
2022-08-28T11:32:33.189Z,99824.80
2022-08-28T11:34:59.417Z,99819.61
2022-08-28T11:37:39.798Z,99817.05
2022-08-28T11:40:29.367Z,99819.46
2022-08-28T11:43:14.130Z,99820.88
2022-08-28T11:45:47.046Z,99822.29
2022-08-28T11:48:33.065Z,99821.77
2022-08-28T11:51:06.891Z,99819.89
2022-08-28T11:53:58.198Z,99824.53
2022-08-28T11:56:40.166Z,99820.80
2022-08-28T11:59:25.405Z,99823.01
2022-08-28T12:02:38.759Z,99822.47
2022-08-28T12:05:09.466Z,99819.98
2022-08-28T12:07:38.166Z,99820.62
2022-08-28T12:10:19.820Z,99821.84
2022-08-28T12:12:46.242Z,99819.67
2022-08-28T12:15:27.777Z,99817.77
2022-08-28T12:18:01.515Z,99819.76
2022-08-28T12:20:29.937Z,99815.41
2022-08-28T12:23:00.463Z,99813.65
2022-08-28T12:25:41.693Z,99814.61
2022-08-28T12:28:22.356Z,99811.29
2022-08-28T12:31:20.899Z,99808.63
2022-08-28T12:34:01.527Z,99808.98
2022-08-28T12:36:28.144Z,99804.79
2022-08-28T12:38:59.724Z,99802.46
2022-08-28T12:41:26.525Z,99801.34
2022-08-28T12:43:56.131Z,99801.53
2022-08-28T12:46:44.957Z,99797.46
2022-08-28T12:49:31.977Z,99790.84
2022-08-28T12:52:10.125Z,99787.84
2022-08-28T12:54:36.476Z,99788.70
2022-08-28T12:57:07.747Z,99782.61
2022-08-28T12:59:39.546Z,99781.83
2022-08-28T13:02:09.354Z,99777.88
2022-08-28T13:04:49.315Z,99775.53
2022-08-28T13:07:17.273Z,99775.75
2022-08-28T13:09:47.307Z,99777.30
2022-08-28T13:12:23.740Z,99778.48
2022-08-28T13:15:06.090Z,99778.08
2022-08-28T13:17:54.209Z,99776.41
2022-08-28T13:20:30.163Z,99772.13
2022-08-28T13:22:57.202Z,99771.02
2022-08-28T13:25:42.019Z,99767.70
2022-08-28T13:28:13.809Z,99764.86
2022-08-28T13:30:40.196Z,99763.73
2022-08-28T13:33:15.946Z,99761.95
2022-08-28T13:35:42.296Z,99763.13
2022-08-28T13:38:16.774Z,99760.18
2022-08-28T13:41:03.401Z,99765.14
2022-08-28T13:43:43.436Z,99771.60
2022-08-28T13:46:09.769Z,99774.81
2022-08-28T13:48:36.258Z,99774.73
2022-08-28T13:51:10.482Z,99774.59
2022-08-28T13:53:37.946Z,99776.94
2022-08-28T13:56:04.665Z,99773.73
2022-08-28T13:58:32.042Z,99773.86
2022-08-28T14:00:59.019Z,99771.80
2022-08-28T14:03:40.657Z,99771.18
2022-08-28T14:06:11.199Z,99771.24
2022-08-28T14:08:39.143Z,99770.47
2022-08-28T14:11:06.616Z,99769.00
2022-08-28T14:13:33.404Z,99769.90
2022-08-28T14:16:04.526Z,99765.19
2022-08-28T14:18:31.464Z,99768.16
2022-08-28T14:20:57.918Z,99769.31
2022-08-28T14:23:24.331Z,99769.48
2022-08-28T14:25:51.660Z,99768.16
2022-08-28T14:28:18.413Z,99773.80
2022-08-28T14:30:49.694Z,99769.19
2022-08-28T14:33:18.951Z,99767.69
2022-08-28T14:35:48.390Z,99766.11
2022-08-28T14:38:15.193Z,99762.98
2022-08-28T14:40:42.629Z,99764.96
2022-08-28T14:43:11.152Z,99764.21
2022-08-28T14:45:47.734Z,99763.90
2022-08-28T14:48:16.536Z,99765.37
2022-08-28T14:50:46.056Z,99765.62
2022-08-28T14:53:13.216Z,99766.15
2022-08-28T14:55:43.179Z,99770.65
2022-08-28T14:58:09.862Z,99774.12
2022-08-28T15:00:54.400Z,99773.65
2022-08-28T15:03:21.209Z,99775.91
2022-08-28T15:05:47.531Z,99778.28
2022-08-28T15:08:16.507Z,99782.16
2022-08-28T15:10:43.423Z,99785.24
2022-08-28T15:13:10.799Z,99784.20
2022-08-28T15:15:41.556Z,99788.47
2022-08-28T15:18:09.652Z,99786.61
2022-08-28T15:20:40.550Z,99797.04
2022-08-28T15:23:08.273Z,99803.00
2022-08-28T15:25:34.827Z,99803.67
2022-08-28T15:28:01.242Z,99804.64
2022-08-28T15:30:27.824Z,99802.11
2022-08-28T15:32:54.916Z,99795.54
2022-08-28T15:35:21.446Z,99791.27
2022-08-28T15:37:48.251Z,99788.15
2022-08-28T15:40:33.765Z,99783.48
2022-08-28T15:43:00.234Z,99783.27
2022-08-28T15:45:26.780Z,99788.30
2022-08-28T15:47:53.560Z,99784.48
2022-08-28T15:50:20.161Z,99785.23
2022-08-28T15:52:46.482Z,99782.55
2022-08-28T15:55:12.840Z,99780.17
2022-08-28T15:57:39.773Z,99776.48
2022-08-28T16:00:10.366Z,99772.49
2022-08-28T16:02:37.365Z,99774.59
2022-08-28T16:05:04.500Z,99784.27
2022-08-28T16:07:34.629Z,99789.42
2022-08-28T16:10:06.431Z,99790.36
2022-08-28T16:12:33.783Z,99787.48
2022-08-28T16:15:00.399Z,99788.94
2022-08-28T16:17:26.887Z,99794.84
2022-08-28T16:19:53.681Z,99805.54
2022-08-28T16:22:20.034Z,99813.04
2022-08-28T16:24:47.049Z,99819.23
2022-08-28T16:27:15.640Z,99825.39
2022-08-28T16:29:43.873Z,99824.61
2022-08-28T16:32:11.709Z,99826.60
2022-08-28T16:34:39.221Z,99821.45
2022-08-28T16:37:06.252Z,99822.63
2022-08-28T16:39:35.868Z,99825.89
2022-08-28T16:42:02.994Z,99833.29
2022-08-28T16:44:29.365Z,99833.94
2022-08-28T16:46:55.895Z,99832.02
2022-08-28T16:49:23.428Z,99846.14
2022-08-28T16:51:50.168Z,99852.77
2022-08-28T16:54:17.526Z,99862.55
2022-08-28T16:56:44.670Z,99868.52
2022-08-28T16:59:15.753Z,99870.36
2022-08-28T17:01:42.842Z,99873.41
2022-08-28T17:04:10.188Z,99863.16
2022-08-28T17:06:36.791Z,99858.79
2022-08-28T17:09:04.381Z,99870.14
2022-08-28T17:11:30.861Z,99881.02
2022-08-28T17:13:58.736Z,99884.17
2022-08-28T17:16:30.506Z,99889.80
2022-08-28T17:18:58.025Z,99897.34
2022-08-28T17:21:43.089Z,99908.93
2022-08-28T17:24:14.101Z,99917.56
2022-08-28T17:26:41.697Z,99923.64
2022-08-28T17:29:08.760Z,99918.17
2022-08-28T17:31:35.210Z,99923.08
2022-08-28T17:34:01.734Z,99925.34
2022-08-28T17:36:33.559Z,99927.22
2022-08-28T17:39:06.613Z,99922.09
2022-08-28T17:41:33.479Z,99917.83
2022-08-28T17:44:01.998Z,99924.05
2022-08-28T17:46:31.758Z,99927.27
2022-08-28T17:49:01.919Z,99926.11
2022-08-28T17:51:42.176Z,99926.77
2022-08-28T17:54:11.971Z,99931.70
2022-08-28T17:56:38.952Z,99933.03
2022-08-28T17:59:05.930Z,99936.96
2022-08-28T18:01:32.652Z,99935.86
2022-08-28T18:03:59.324Z,99939.30
2022-08-28T18:06:26.001Z,99938.61
2022-08-28T18:08:52.878Z,99936.86
2022-08-28T18:11:19.670Z,99937.08
2022-08-28T18:13:46.437Z,99932.48
2022-08-28T18:16:13.033Z,99937.14
2022-08-28T18:18:40.728Z,99935.52
2022-08-28T18:21:09.693Z,99935.27
2022-08-28T18:23:36.756Z,99932.31
2022-08-28T18:26:04.123Z,99934.77
2022-08-28T18:28:32.101Z,99936.70
2022-08-28T18:31:00.233Z,99933.52
2022-08-28T18:33:41.925Z,99931.77
2022-08-28T18:36:11.349Z,99930.98
2022-08-28T18:38:38.523Z,99929.02
2022-08-28T18:41:06.575Z,99926.96
2022-08-28T18:43:33.450Z,99924.20
2022-08-28T18:46:01.365Z,99921.32
2022-08-28T18:48:28.216Z,99922.38
2022-08-28T18:50:55.372Z,99921.94
2022-08-28T18:53:22.666Z,99919.51
2022-08-28T18:55:52.749Z,99919.77
2022-08-28T18:58:22.310Z,99917.08
2022-08-28T19:00:49.234Z,99916.64
2022-08-28T19:03:16.066Z,99914.51
2022-08-28T19:05:42.706Z,99912.95
2022-08-28T19:08:09.221Z,99915.69
2022-08-28T19:10:37.066Z,99915.92
2022-08-28T19:13:04.608Z,99916.89
2022-08-28T19:15:32.624Z,99917.80
2022-08-28T19:18:00.705Z,99921.13
2022-08-28T19:20:27.552Z,99928.58
2022-08-28T19:22:55.235Z,99932.84
2022-08-28T19:25:28.351Z,99929.80
2022-08-28T19:27:59.148Z,99932.75
2022-08-28T19:30:28.303Z,99932.17
2022-08-28T19:32:55.492Z,99936.20
2022-08-28T19:35:24.548Z,99939.75
2022-08-28T19:37:52.528Z,99939.27
2022-08-28T19:40:19.918Z,99940.39
2022-08-28T19:42:46.499Z,99941.28
2022-08-28T19:45:14.517Z,99936.14
2022-08-28T19:47:41.611Z,99931.61
2022-08-28T19:50:10.023Z,99928.80
2022-08-28T19:52:37.233Z,99930.85
2022-08-28T19:55:05.476Z,99939.32
2022-08-28T19:57:32.772Z,99939.09
2022-08-28T19:59:59.437Z,99937.35
2022-08-28T20:02:26.531Z,99933.14
2022-08-28T20:04:53.874Z,99933.30
2022-08-28T20:07:21.353Z,99932.48
2022-08-28T20:09:47.718Z,99929.61
2022-08-28T20:12:14.157Z,99925.16
2022-08-28T20:14:41.926Z,99923.48
2022-08-28T20:17:08.720Z,99915.91
2022-08-28T20:19:35.258Z,99913.48
2022-08-28T20:22:02.462Z,99909.51
2022-08-28T20:24:29.902Z,99904.11
2022-08-28T20:26:56.202Z,99898.64
2022-08-28T20:29:23.514Z,99896.35
2022-08-28T20:31:50.545Z,99891.59
2022-08-28T20:34:18.129Z,99893.09
2022-08-28T20:36:44.827Z,99895.48
2022-08-28T20:39:11.781Z,99894.96
2022-08-28T20:41:39.883Z,99898.61
2022-08-28T20:44:08.907Z,99895.25
2022-08-28T20:46:40.445Z,99895.76
2022-08-28T20:49:11.678Z,99901.02
2022-08-28T20:52:00.185Z,99907.09
2022-08-28T20:54:32.311Z,99904.33
2022-08-28T20:57:02.055Z,99902.84
2022-08-28T20:59:39.603Z,99902.63
2022-08-28T21:02:27.077Z,99903.75
2022-08-28T21:04:54.016Z,99904.15
2022-08-28T21:07:22.561Z,99902.30
2022-08-28T21:10:06.005Z,99901.27
2022-08-28T21:12:38.296Z,99897.58
2022-08-28T21:15:11.883Z,99893.52
2022-08-28T21:17:39.679Z,99894.46
2022-08-28T21:20:10.283Z,99897.86
2022-08-28T21:22:37.870Z,99899.86
2022-08-28T21:25:07.466Z,99903.11
2022-08-28T21:27:34.367Z,99904.36
2022-08-28T21:30:02.076Z,99910.35
2022-08-28T21:32:29.621Z,99914.11
2022-08-28T21:34:55.945Z,99917.73
2022-08-28T21:37:22.800Z,99921.23
2022-08-28T21:39:49.196Z,99918.04
2022-08-28T21:42:15.764Z,99929.70
2022-08-28T21:44:48.377Z,99928.06
2022-08-28T21:47:20.647Z,99933.08
2022-08-28T21:49:48.800Z,99933.77
2022-08-28T21:52:16.228Z,99941.59
2022-08-28T21:54:42.509Z,99941.52
2022-08-28T21:57:09.042Z,99941.58
2022-08-28T21:59:37.777Z,99947.04
2022-08-28T22:02:04.976Z,99943.95
2022-08-28T22:04:31.686Z,99951.02
2022-08-28T22:06:58.199Z,99952.89
2022-08-28T22:09:24.468Z,99950.68
2022-08-28T22:11:50.802Z,99949.39
2022-08-28T22:14:17.790Z,99956.38
2022-08-28T22:16:44.365Z,99959.95
2022-08-28T22:19:10.728Z,99963.67
2022-08-28T22:22:13.343Z,99961.37
2022-08-28T22:24:39.926Z,99967.67
2022-08-28T22:27:06.344Z,99964.38
2022-08-28T22:29:35.962Z,99962.89
2022-08-28T22:32:04.821Z,99965.10
2022-08-28T22:34:37.486Z,99970.80
2022-08-28T22:37:04.326Z,99969.13
2022-08-28T22:39:30.605Z,99971.84
2022-08-28T22:41:56.867Z,99973.33
2022-08-28T22:44:23.341Z,99977.23
2022-08-28T22:46:49.711Z,99979.84
2022-08-28T22:49:16.033Z,99983.77
2022-08-28T22:51:42.298Z,99986.33
2022-08-28T22:54:08.740Z,99994.20
2022-08-28T22:56:35.740Z,100001.00
2022-08-28T22:59:02.179Z,100012.05
2022-08-28T23:01:29.230Z,100011.77
2022-08-28T23:03:56.997Z,100009.17
2022-08-28T23:06:23.290Z,99993.32
2022-08-28T23:08:49.620Z,99988.94
2022-08-28T23:11:16.364Z,99986.53
2022-08-28T23:13:42.911Z,99982.34
2022-08-28T23:16:09.309Z,99983.34
2022-08-28T23:19:06.110Z,99986.77
2022-08-28T23:21:23.698Z,99984.05
2022-08-28T23:23:54.261Z,99981.27
2022-08-28T23:26:21.547Z,99976.34
2022-08-28T23:28:48.620Z,99976.32
2022-08-28T23:31:15.064Z,99971.88
2022-08-28T23:33:41.850Z,99973.27
2022-08-28T23:36:09.084Z,99972.14
2022-08-28T23:38:36.775Z,99971.67
2022-08-28T23:41:04.577Z,99971.39
2022-08-28T23:43:31.652Z,99964.52
2022-08-28T23:45:58.418Z,99960.71
2022-08-28T23:48:25.828Z,99961.64
2022-08-28T23:50:52.441Z,99963.30
2022-08-28T23:53:19.698Z,99960.42
2022-08-28T23:55:46.450Z,99961.02
2022-08-28T23:58:16.738Z,99961.69
